VTSP/HKT METAR and TAF weather

Enter ICAO airport designator
Station Type Date Time Source
VTSP METAR 2022/01/28 00:00 UTC NOAA

VTSP 280000Z VRB02KT 9999 FEW020 24/23 Q1010 NOSIG


Station Type Date Time Source
VTSP Decoded METAR 2022/01/28 00:00 UTC NOAA

Phuket Airport, Thailand (VTSP) 08-07N 098-19E 10M
Jan 27, 2022 - 07:00 PM EST / 2022.01.28 0000 UTC
Wind: Variable at 2 MPH (2 KT):0
Visibility: greater than 7 mile(s):0
Sky conditions: mostly clear
Temperature: 75 F (24 C)
Dew Point: 73 F (23 C)
Relative Humidity: 94%
Pressure (altimeter): 29.83 in. Hg (1010 hPa)
ob: VTSP 280000Z VRB02KT 9999 FEW020 24/23 Q1010 NOSIG
cycle: 0

Station Type Date Time Source
VTSP TAF 2022/01/27 18:39 UTC NOAA

TAF VTSP 271700Z 2718/2824 00000KT 9999 FEW020
BECMG 2800/2802 09007KT
BECMG 2806/2808 30006KT
BECMG 2814/2816 00000KT

Example: see airport list